Terminal Aerodrome Forecast
Issued by NWS

Home | Current Version | Previous Version | Text Only | Print | Product List | Glossary On
Versions: 1 2 3 4 5 6 7 8 9 10 11 12 13 14 15 16
000
FTUS45 KFGZ 221100
TAFSEZ
TAF
KSEZ 221120Z 2212/2312 03010KT P6SM SKC
      TEMPO 2212/2215 3SM FU
     FM221800 17010KT P6SM SCT110
     FM230200 VRB06KT P6SM BKN120=

USA.gov is the U.S. government's official web portal to all federal, state and local government web resources and services.